Crosby, TX (77532)

10:03 PM CST on March 03, 2015 (GMT -0600)
Lake Shadows | Change Station
CLOSE
Current Station
Personal Weather Station
Location: Crosby, TX
Elevation: 63 ft
Nearby Weather Stations

Elev 63 ft 29.95 °N, 95.11 °W | Updated 12 minutes ago

Mostly Cloudy
Mostly Cloudy
68.5 °F
Feels Like 68.5 °F
N
3.0
Wind Variable Wind from SW
Gusts 4.0 mph

Today
High -- | Low -- °F
--% Chance of Precip.
Yesterday
High -- | Low -- °F
Precip. -- in
6:44 AM 6:20 PM
Waxing Gibbous, 98% visible
Pressure 29.90 in
Visibility 9.0 miles
Clouds Mostly Cloudy 1300 ft
Dew Point 67 °F
Humidity 93%
Rainfall 0.02 in
Snow Depth Not available.
UV 0 out of 12
Pollen 8.90 out of 12
Air Quality Not available.
Flu Activity Not available.
METAR KIAH 040353Z 16010KT 9SM BKN013 21/19 A2989 RMK AO2 SLP123 T02060189

More Conditions Fewer Conditions

Pressure 29.90 in
Visibility 9.0 miles
Clouds Mostly Cloudy 1300 ft
Dew Point 67 °F
Humidity 93%
Rainfall 0.02 in
Snow Depth Not available.
UV 0 out of 12
Pollen 8.90 out of 12
Air Quality Not available.
Flu Activity Not available.
METAR KIAH 040353Z 16010KT 9SM BKN013 21/19 A2989 RMK AO2 SLP123 T02060189

More Conditions Fewer Conditions

10-Day Weather Forecast

Almanac

Astronomy

Mar. 03, 2015 Rise Set
Actual Time
Civil Twilight
Nautical Twilight
Astronomical Twilight
Moon
Length of Visible Light
Length of Day
Tomorrow will be .
, % of the Moon is Illuminated

Today's Extremes

State Highs State Lows

Community

WunderPhotos

Upload Photos

1,802,381 photos uploaded!

WunderBlogs® & News

Nearby

Air Quality

  Air Quality AQ Index Pollutant
Not available.

Snow Depth

Station Depth Elevation

Earthquake Activity

City Distance Mag. Time & Date
Minimum magnitude displayed is 2.5.

Coastal Water Temperatures

Place Temperature

Nearby Weather Stations